Patuxent River Naval Air Sta, Maryland
Current Conditions -  °F | °C
As of 8:52 AM on Friday 31 Oct 2014 (Local Time) from KNHK Reporting Station
Overcast Overcast  
Wind Chill: 50°   Ceiling: 22000
Heat Index: 50°   Visibility: 10mi
Dew Point: 40°   Wind: 7mph
Humidity: 68%   Direction: 50°NE
Pressure: 29.99"   Gusts: NA
Location:  38.2812°N, 76.4205°W
Report Text: KNHK 311252Z 05006KT 10SM FEW060 SCT150 OVC220 10/04 A2999 RMK AO2 SLP155 T01000044
Loading
Personal Weather Stations






























Interactive Weather Map
Tropical Storm Tracking
New forecast layout! Learn more

10-Day Weather Forecast

Advertisements
Track Severe Weather on mobile